Locke Mills, Pennsylvania
Current Conditions -  °F | °C
As of 2:35 AM on Saturday 29 Nov 2014 (Local Time) from KUNV Reporting Station
Light Snow Light Snow  
Wind Chill: 22°   Ceiling: 2200
Heat Index: 22°   Visibility: 5mi
Dew Point: 15°   Wind: 3mph
Humidity: 76%   Direction: 270°W
Pressure: 30.23"   Gusts: NA
Location:  40.7567°N, 77.488°W
Report Text: KUNV 290735Z AUTO 27003KT 5SM -SN BKN022 OVC029 M06/M09 A3023 RMK AO2 T10561092
Loading
Personal Weather Stations






























Interactive Weather Map New forecast layout! Learn more

10-Day Weather Forecast

Advertisements
Track Severe Weather on mobile